Latest Weather Observations for Ngayawili (Elcho Island)

IDD60801

Issued at 4:05 pm CST Wednesday 20 August 2014 (issued every 30 minutes, with the page automatically refreshed every 10 minutes)

About weather observations | Map of weather stations | Latest weather observations for NT | Other Formats
Station Details ID: 014517 Name: NGAYAWILI Lat: -12.00 Lon: 135.57 Height: 8.1 m
Data from the previous 72 hours. | See also: Recent months at Ngayawili (Elcho Island)
Date/Time
CST
Temp
°C
App
Temp
°C
Dew
Point
Rel
Hum
%
Delta-T
°C
Wind Press
QNH
hPa
Press
MSL
hPa
Rain
since 9 am
mm
Dir
 
Spd
km/h
Gust
km/h
Spd
kts
Gust
kts
20/04:00pm 28.1 25.4 10.3 33 10.0 ESE 15 28 8 15 1012.3 - 0.0
20/03:30pm 28.4 25.8 10.6 33 10.1 E 15 24 8 13 1012.4 - 0.0
20/03:00pm 28.4 25.8 10.6 33 10.1 E 15 26 8 14 1012.6 1012.5 0.0
20/02:30pm 28.6 26.1 11.2 34 10.0 ESE 15 24 8 13 1013.1 - 0.0
20/02:00pm 29.0 27.3 12.4 36 9.7 E 13 22 7 12 1013.6 - 0.0
20/01:30pm 28.0 25.5 12.4 38 9.1 E 17 32 9 17 1014.0 - 0.0
20/01:00pm 27.6 25.2 12.8 40 8.7 E 17 32 9 17 1014.6 - 0.0
20/12:30pm 27.6 25.5 12.4 39 8.8 E 15 22 8 12 1015.1 - 0.0
20/12:00pm 27.0 23.8 11.1 37 9.0 ESE 19 26 10 14 1015.7 1015.6 0.0
20/11:30am 26.5 23.5 10.6 37 8.9 E 17 28 9 15 1016.0 - 0.0
20/11:00am 26.9 24.6 11.8 39 8.7 E 15 26 8 14 1016.2 - 0.0
20/10:30am 25.7 22.8 12.2 43 7.8 ESE 19 30 10 16 1016.3 - 0.0
20/10:00am 25.3 22.6 11.8 43 7.7 ESE 17 26 9 14 1016.5 - 0.0
20/09:30am 24.7 23.4 14.8 54 5.9 E 15 26 8 14 1016.5 - 0.0
20/09:00am 23.4 22.6 16.2 64 4.4 ESE 15 26 8 14 1016.4 1016.3 0.0
20/08:30am 21.8 21.1 16.5 72 3.2 SE 15 24 8 13 1016.3 - 0.0
20/08:00am 20.0 19.7 16.4 80 2.2 ESE 13 19 7 10 1016.0 - 0.0
20/07:30am 19.5 19.5 16.3 82 1.9 ESE 11 17 6 9 1015.9 - 0.0
20/07:00am 19.0 18.5 16.0 83 1.8 ESE 13 17 7 9 1015.7 - 0.0
20/06:30am 18.8 18.2 15.7 82 1.8 ESE 13 19 7 10 1015.5 - 0.0
20/06:00am 18.9 18.3 15.6 81 1.9 ESE 13 20 7 11 1015.2 1015.1 0.0
20/05:30am 18.4 18.1 15.5 83 1.7 SE 11 17 6 9 1014.9 - 0.0
20/05:00am 18.7 18.2 15.8 83 1.7 ESE 13 19 7 10 1014.7 - 0.0
20/04:30am 18.8 18.2 15.7 82 1.8 ESE 13 17 7 9 1014.4 - 0.0
20/04:00am 19.0 18.1 15.9 82 1.8 ESE 15 19 8 10 1014.5 - 0.0
20/03:30am 19.0 18.4 15.7 81 2.0 ESE 13 20 7 11 1014.4 - 0.0
20/03:00am 19.2 18.2 15.7 80 2.1 ESE 15 20 8 11 1014.3 1014.2 0.0
20/02:30am 19.4 18.4 15.5 78 2.3 ESE 15 22 8 12 1014.6 - 0.0
20/02:00am 19.6 18.5 15.3 76 2.5 ESE 15 22 8 12 1014.8 - 0.0
20/01:30am 19.8 18.7 15.2 75 2.7 ESE 15 22 8 12 1015.0 - 0.0
20/01:00am 20.0 18.4 15.0 73 2.9 ESE 17 24 9 13 1015.2 - 0.0
20/12:30am 20.1 18.5 15.1 73 2.9 ESE 17 32 9 17 1015.3 - 0.0
20/12:00am 20.2 18.9 14.8 71 3.2 ESE 15 22 8 12 1015.7 1015.6 0.0
 
Date/Time
CST
Temp
°C
App
Temp
°C
Dew
Point
Rel
Hum
%
Delta-T
°C
Wind Press
QNH
hPa
Press
MSL
hPa
Rain
since 9 am
mm
Dir
 
Spd
km/h
Gust
km/h
Spd
kts
Gust
kts
19/11:30pm 20.4 18.6 14.5 69 3.4 ESE 17 26 9 14 1015.4 - 0.0
19/11:00pm 20.6 18.5 14.7 69 3.5 ESE 19 26 10 14 1015.4 - 0.0
19/10:30pm 20.8 19.1 14.7 68 3.6 ESE 17 26 9 14 1015.4 - 0.0
19/10:00pm 21.2 19.1 14.8 67 3.8 ESE 19 24 10 13 1015.4 - 0.0
19/09:30pm 21.7 19.6 14.8 65 4.1 ESE 19 32 10 17 1015.2 - 0.0
19/09:00pm 22.0 20.2 14.4 62 4.5 ESE 17 28 9 15 1015.1 1015.0 0.0
19/08:30pm 22.3 21.1 13.9 59 4.9 ESE 13 20 7 11 1014.8 - 0.0
19/08:00pm 22.7 21.8 13.7 56 5.2 ESE 11 20 6 11 1014.4 - 0.0
19/07:30pm 22.9 21.6 13.7 56 5.4 E 13 20 7 11 1014.1 - 0.0
19/07:00pm 23.2 22.5 14.2 57 5.3 E 11 15 6 8 1013.5 - 0.0
19/06:30pm 23.6 23.2 14.0 55 5.6 E 9 13 5 7 1013.2 - 0.0
19/06:00pm 24.6 23.6 13.5 50 6.5 E 11 17 6 9 1013.0 1012.9 0.0
19/05:30pm 25.5 24.7 14.0 49 6.8 E 11 17 6 9 1012.9 - 0.0
19/05:00pm 25.8 23.7 13.6 47 7.2 E 17 24 9 13 1012.9 - 0.0
19/04:30pm 26.5 25.0 14.3 47 7.3 ESE 15 26 8 14 1012.8 - 0.0
19/04:00pm 27.2 26.1 14.2 44 7.8 E 13 19 7 10 1012.8 - 0.0
19/03:30pm 27.9 26.5 14.5 44 8.1 E 15 22 8 12 1013.0 - 0.0
19/03:00pm 28.0 25.9 13.5 41 8.6 E 17 24 9 13 1013.1 1013.0 0.0
19/02:30pm 28.5 26.1 12.8 38 9.2 SE 17 26 9 14 1013.6 - 0.0
19/02:00pm 28.6 26.5 12.5 37 9.4 SE 15 24 8 13 1014.1 - 0.0
19/01:30pm 27.8 24.8 10.5 34 9.8 ESE 17 26 9 14 1014.6 - 0.0
19/01:00pm 27.7 25.1 12.1 38 9.0 ESE 17 28 9 15 1015.2 - 0.0
19/12:30pm 27.2 25.5 12.4 40 8.6 ESE 13 24 7 13 1015.9 - 0.0
19/12:00pm 26.3 23.2 11.6 40 8.4 SE 19 30 10 16 1016.2 1016.1 0.0
19/11:30am 26.3 23.1 12.0 41 8.2 SE 20 39 11 21 1016.8 - 0.0
19/11:00am 25.1 21.9 11.3 42 7.8 SE 19 32 10 17 1017.3 - 0.0
19/10:30am 24.6 21.0 11.9 45 7.2 SE 22 33 12 18 1017.6 - 0.0
19/10:00am 23.9 21.1 13.2 51 6.2 ESE 20 35 11 19 1017.8 - 0.0
19/09:30am 23.0 20.0 13.8 56 5.4 SE 22 35 12 19 1017.8 - 0.0
19/09:00am 22.0 19.4 13.9 60 4.7 SE 20 37 11 20 1017.9 1017.8 0.0
19/08:30am 20.1 19.1 14.5 70 3.3 SE 13 19 7 10 1017.9 - 0.0
19/08:00am 19.2 17.6 14.0 72 3.0 SE 15 20 8 11 1017.6 - 0.0
19/07:30am 18.9 17.4 14.2 74 2.7 SE 15 22 8 12 1017.0 - 0.0
19/07:00am 18.4 16.7 13.7 74 2.7 SE 15 22 8 12 1016.7 - 0.0
19/06:30am 18.4 16.0 13.7 74 2.7 SE 19 30 10 16 1016.3 - 0.0
19/06:00am 18.2 16.1 13.5 74 2.7 SE 17 28 9 15 1016.0 1015.9 0.0
19/05:30am 18.2 16.2 13.9 76 2.5 SE 17 26 9 14 1015.5 - 0.0
19/05:00am 17.9 16.5 14.6 81 1.9 SE 15 20 8 11 1015.3 - 0.0
19/04:30am 18.0 17.2 15.1 83 1.7 SE 13 17 7 9 1015.3 - 0.0
19/04:00am 17.9 17.5 15.3 85 1.5 SE 11 20 6 11 1015.3 - 0.0
19/03:30am 17.7 17.3 15.3 86 1.4 SE 11 15 6 8 1015.4 - 0.0
19/03:00am 18.2 17.8 15.3 83 1.7 SE 11 15 6 8 1015.5 1015.4 0.0
19/02:30am 18.6 18.2 15.3 81 1.9 SE 11 17 6 9 1015.8 - 0.0
19/02:00am 18.9 18.2 15.4 80 2.1 SE 13 20 7 11 1015.7 - 0.0
19/01:30am 19.5 17.7 15.4 77 2.4 SSE 19 30 10 16 1015.7 - 0.0
19/01:00am 19.8 17.3 15.2 75 2.7 SE 22 32 12 17 1015.8 - 0.0
19/12:30am 20.1 18.0 15.3 74 2.8 SE 20 39 11 21 1015.9 - 0.0
19/12:00am 20.2 18.1 15.2 73 2.9 SE 20 32 11 17 1016.1 1016.0 0.0
 
Date/Time
CST
Temp
°C
App
Temp
°C
Dew
Point
Rel
Hum
%
Delta-T
°C
Wind Press
QNH
hPa
Press
MSL
hPa
Rain
since 9 am
mm
Dir
 
Spd
km/h
Gust
km/h
Spd
kts
Gust
kts
18/11:30pm 20.3 18.2 15.1 72 3.1 SE 20 30 11 16 1016.1 - 0.0
18/11:00pm 20.5 18.6 15.1 71 3.2 SE 19 30 10 16 1016.0 - 0.0
18/10:30pm 20.8 18.7 15.1 70 3.4 SE 20 32 11 17 1016.2 - 0.0
18/10:00pm 21.1 19.1 15.0 68 3.6 SE 19 33 10 18 1016.0 - 0.0
18/09:30pm 21.4 19.8 15.0 67 3.8 ESE 17 26 9 14 1016.2 - 0.0
18/09:00pm 21.8 20.2 14.9 65 4.1 SE 17 28 9 15 1016.0 1015.9 0.0
18/08:30pm 22.2 21.0 15.1 64 4.2 SE 15 26 8 14 1015.8 - 0.0
18/08:00pm 22.6 21.5 15.2 63 4.4 ESE 15 28 8 15 1015.5 - 0.0
18/07:30pm 22.9 21.7 15.0 61 4.7 ESE 15 24 8 13 1015.1 - 0.0
18/07:00pm 23.5 21.9 15.0 59 5.1 ESE 17 26 9 14 1015.0 - 0.0
18/06:30pm 23.8 22.1 14.8 57 5.4 ESE 17 28 9 15 1014.5 - 0.0
18/06:00pm 24.5 23.0 14.3 53 6.0 E 15 24 8 13 1014.3 1014.2 0.0
18/05:30pm 25.4 24.0 14.5 51 6.5 E 15 26 8 14 1014.1 - 0.0
18/05:00pm 25.9 24.1 14.4 49 6.9 E 17 28 9 15 1013.9 - 0.0
18/04:30pm 26.4 24.3 14.8 49 7.0 E 19 28 10 15 1013.6 - 0.0
18/04:00pm 26.9 25.2 14.6 46 7.4 E 17 26 9 14 1013.6 - 0.0
18/03:30pm 27.7 26.1 15.0 45 7.7 E 17 26 9 14 1013.7 - 0.0
18/03:00pm 28.3 26.7 14.9 44 8.1 ESE 17 24 9 13 1013.7 1013.6 0.0
18/02:30pm 28.2 26.5 13.7 41 8.6 E 15 26 8 14 1013.9 - 0.0
18/02:00pm 28.4 26.9 14.3 42 8.5 ESE 15 26 8 14 1014.3 - 0.0
18/01:30pm 27.9 26.5 14.5 44 8.1 ESE 15 26 8 14 1014.8 - 0.0
18/01:00pm 27.6 25.6 14.9 45 7.7 ESE 19 33 10 18 1015.2 - 0.0
18/12:30pm 27.1 24.7 14.5 46 7.6 SE 20 33 11 18 1015.7 - 0.0
18/12:00pm 27.0 24.9 14.7 47 7.4 ESE 19 33 10 18 1016.1 1016.0 0.0
18/11:30am 26.1 24.0 14.6 49 6.9 ESE 19 32 10 17 1016.7 - 0.0
18/11:00am 25.4 22.7 14.5 51 6.5 SE 22 33 12 18 1016.9 - 0.0
18/10:30am 24.8 22.1 14.6 53 6.1 SE 22 39 12 21 1017.1 - 0.0
18/10:00am 24.1 22.0 15.1 57 5.4 SE 20 37 11 20 1017.3 - 0.0
18/09:30am 22.8 20.7 15.1 62 4.6 SE 20 37 11 20 1017.2 - 0.0
18/09:00am 21.9 20.0 15.3 66 3.9 SE 19 35 10 19 1017.2 1017.1 0.0
18/08:30am 20.6 19.7 14.9 70 3.3 SE 13 24 7 13 1017.0 - 0.0
18/08:00am 19.3 17.1 14.3 73 2.9 SE 19 28 10 15 1016.8 - 0.0
18/07:30am 17.9 16.3 13.8 77 2.3 SE 15 26 8 14 1016.4 - 0.0
18/07:00am 16.5 15.0 13.2 81 1.8 SE 13 17 7 9 1016.2 - 0.0
18/06:30am 16.6 15.1 13.1 80 2.0 SE 13 20 7 11 1015.9 - 0.0
18/06:00am 16.7 14.8 13.0 79 2.1 SSE 15 26 8 14 1015.5 1015.4 0.0
18/05:30am 16.5 15.0 13.2 81 1.8 SE 13 19 7 10 1015.1 - 0.0
18/05:00am 16.3 15.6 13.2 82 1.7 SSE 9 17 5 9 1015.0 - 0.0
18/04:30am 16.0 15.8 12.9 82 1.7 SSE 6 11 3 6 1015.1 - 0.0
18/04:00am 16.8 16.6 12.9 78 2.2 SSE 6 9 3 5 1015.3 - 0.0
18/03:30am 17.4 16.7 13.1 76 2.4 SSE 9 17 5 9 1015.0 - 0.0
18/03:00am 17.3 15.8 13.2 77 2.3 SSE 13 19 7 10 1014.9 1014.8 0.0
18/02:30am 17.2 16.8 12.9 76 2.4 ESE 7 13 4 7 1015.2 - 0.0
18/02:00am 17.6 16.5 13.1 75 2.5 SSE 11 17 6 9 1015.4 - 0.0
18/01:30am 17.4 16.2 12.9 75 2.5 SSE 11 15 6 8 1015.6 - 0.0
18/01:00am 17.8 16.8 13.3 75 2.5 SSE 11 15 6 8 1015.8 - 0.0
18/12:30am 18.7 18.1 13.6 72 2.9 SE 9 17 5 9 1016.2 - 0.0
18/12:00am 19.1 18.1 13.5 70 3.2 SE 11 17 6 9 1016.5 1016.4 0.0
 
Date/Time
CST
Temp
°C
App
Temp
°C
Dew
Point
Rel
Hum
%
Delta-T
°C
Wind Press
QNH
hPa
Press
MSL
hPa
Rain
since 9 am
mm
Dir
 
Spd
km/h
Gust
km/h
Spd
kts
Gust
kts
17/11:30pm 19.1 18.0 13.1 68 3.4 SE 11 15 6 8 1016.8 - 0.0
17/11:00pm 19.3 18.2 12.1 63 4.0 SE 9 15 5 8 1017.0 - 0.0
17/10:30pm 19.8 18.4 11.0 57 4.8 ESE 9 17 5 9 1017.1 - 0.0
17/10:00pm 20.4 17.5 9.6 50 5.8 SSE 15 24 8 13 1016.9 - 0.0
17/09:30pm 21.0 18.0 10.5 51 5.7 SSE 17 26 9 14 1016.5 - 0.0
17/09:00pm 21.5 18.3 11.2 52 5.7 SSE 19 32 10 17 1016.1 1016.0 0.0
17/08:30pm 21.7 19.0 10.5 49 6.1 SE 15 26 8 14 1015.9 - 0.0
17/08:00pm 22.3 19.4 9.8 45 6.8 SSE 15 26 8 14 1015.4 - 0.0
17/07:30pm 22.9 20.2 10.3 45 6.9 SSE 15 22 8 12 1015.0 - 0.0
17/07:00pm 23.5 20.8 10.2 43 7.3 SSE 15 24 8 13 1014.5 - 0.0
17/06:30pm 24.2 21.0 10.1 41 7.8 SSE 17 26 9 14 1013.9 - 0.0
17/06:00pm 25.3 22.4 9.6 37 8.6 SE 15 20 8 11 1013.5 1013.4 0.0
17/05:30pm 26.5 23.4 8.9 33 9.6 SE 15 24 8 13 1013.3 - 0.0
17/05:00pm 27.2 23.7 8.6 31 10.1 SE 17 26 9 14 1012.8 - 0.0
17/04:30pm 27.7 24.2 8.6 30 10.4 SE 17 28 9 15 1012.6 - 0.0

Other Formats:

Comma delimited format used in spreadsheet applications
http://www.bom.gov.au/fwo/IDD60801/IDD60801.95146.axf

JavaScript Object Notation format (JSON) in row-major order
http://www.bom.gov.au/fwo/IDD60801/IDD60801.95146.json